Time;durP1;ratioP1;P1;durP2;ratioP2;P2;SDS_P1;SDS_P2;PMS_P1;PMS_P2;Temp;Humidity;BMP_temperature;BMP_pressure;BME280_temperature;BME280_humidity;BME280_pressure;Samples;Min_cycle;Max_cycle;Signal;HPM_P1;HPM_P2
2022/10/23 00:00:53;;;;;;;8.73;2.63;;;15.10;99.90;;;;;;2096523;28;20111;-72
2022/10/23 00:01:54;;;;;;;9.55;2.97;;;15.10;99.90;;;;;;2095465;28;20045;-72
2022/10/23 00:02:55;;;;;;;6.57;3.25;;;15.10;99.90;;;;;;2093012;28;20040;-72
2022/10/23 00:03:58;;;;;;;6.88;2.75;;;15.10;99.90;;;;;;2093401;28;20020;-72
2022/10/23 00:04:59;;;;;;;12.80;3.40;;;15.10;99.90;;;;;;2094286;28;20115;-72
2022/10/23 00:06:03;;;;;;;7.47;3.08;;;15.10;99.90;;;;;;2092798;28;20036;-72
2022/10/23 00:07:04;;;;;;;15.02;3.53;;;15.10;99.90;;;;;;2092044;28;20031;-72
2022/10/23 00:08:04;;;;;;;6.60;3.28;;;15.10;99.90;;;;;;2093556;28;20039;-72
2022/10/23 00:09:06;;;;;;;8.48;3.33;;;15.10;99.90;;;;;;2094034;28;20051;-72
2022/10/23 00:10:09;;;;;;;10.27;3.28;;;15.10;99.90;;;;;;2091971;28;20125;-72
2022/10/23 00:11:11;;;;;;;9.93;2.85;;;15.10;99.90;;;;;;2093234;28;20078;-72
2022/10/23 00:12:12;;;;;;;8.52;2.88;;;15.10;99.90;;;;;;2095943;28;20071;-72
2022/10/23 00:13:12;;;;;;;6.72;3.00;;;15.10;99.90;;;;;;2092262;28;20020;-72
2022/10/23 00:14:14;;;;;;;6.57;2.60;;;15.00;99.90;;;;;;2094597;28;20041;-72
2022/10/23 00:15:17;;;;;;;8.27;3.38;;;15.10;99.90;;;;;;2094051;28;20031;-72
2022/10/23 00:16:18;;;;;;;7.28;2.80;;;15.00;99.90;;;;;;2093763;28;20039;-72
2022/10/23 00:17:19;;;;;;;6.03;2.22;;;15.00;99.90;;;;;;2094615;28;20035;-72
2022/10/23 00:18:19;;;;;;;7.22;2.50;;;15.00;99.90;;;;;;2095474;28;21024;-72
2022/10/23 00:19:20;;;;;;;7.30;2.92;;;15.00;99.90;;;;;;2095145;28;20024;-72
2022/10/23 00:20:20;;;;;;;15.55;3.22;;;15.00;99.90;;;;;;2093657;28;20025;-72
2022/10/23 00:21:21;;;;;;;7.13;2.55;;;15.00;99.90;;;;;;2094330;28;20135;-72
2022/10/23 00:22:22;;;;;;;8.95;2.90;;;15.00;99.90;;;;;;2093377;28;20033;-72
2022/10/23 00:23:22;;;;;;;9.38;2.92;;;15.00;99.90;;;;;;2094161;28;20036;-72
2022/10/23 00:24:23;;;;;;;6.90;2.80;;;15.00;99.90;;;;;;2093346;28;20028;-72
2022/10/23 00:25:23;;;;;;;8.95;2.92;;;15.00;99.90;;;;;;2093910;28;20029;-72
2022/10/23 00:26:24;;;;;;;8.25;2.83;;;15.00;99.90;;;;;;2092307;28;20032;-72
2022/10/23 00:27:25;;;;;;;11.90;3.65;;;15.00;99.90;;;;;;2094116;28;20108;-72
2022/10/23 00:28:26;;;;;;;9.15;2.88;;;15.00;99.90;;;;;;2094855;28;20673;-72
2022/10/23 00:29:27;;;;;;;8.90;2.97;;;15.00;99.90;;;;;;2095535;28;20028;-72
2022/10/23 00:30:27;;;;;;;7.35;2.92;;;14.90;99.90;;;;;;2095782;28;20024;-72
2022/10/23 00:31:28;;;;;;;4.95;2.50;;;14.90;99.90;;;;;;2095183;28;20100;-72
2022/10/23 00:32:28;;;;;;;10.32;3.03;;;14.90;99.90;;;;;;2095068;28;20116;-72
2022/10/23 00:33:30;;;;;;;6.07;2.80;;;14.90;99.90;;;;;;2091966;28;20009;-72
2022/10/23 00:34:30;;;;;;;9.57;3.22;;;14.90;99.90;;;;;;2094766;28;20028;-72
2022/10/23 00:35:31;;;;;;;5.95;2.53;;;14.80;99.90;;;;;;2094681;28;20666;-72
2022/10/23 00:36:31;;;;;;;8.48;2.80;;;14.90;99.90;;;;;;2094373;28;20058;-72
2022/10/23 00:37:32;;;;;;;3.88;2.50;;;14.90;99.90;;;;;;2093954;28;20099;-72
2022/10/23 00:38:34;;;;;;;6.88;2.63;;;14.90;99.90;;;;;;2094440;28;20020;-72
2022/10/23 00:39:34;;;;;;;13.88;2.88;;;14.80;99.90;;;;;;2092568;28;20013;-72
2022/10/23 00:40:36;;;;;;;7.72;2.60;;;14.80;99.90;;;;;;2093593;28;20713;-72
2022/10/23 00:41:37;;;;;;;6.07;2.50;;;14.80;99.90;;;;;;2093001;28;20041;-72
2022/10/23 00:42:37;;;;;;;7.32;2.80;;;14.80;99.90;;;;;;2092690;28;21522;-72
2022/10/23 00:43:56;;;;;;;3.92;2.22;;;14.80;99.90;;;;;;2093045;28;20047;-72
2022/10/23 00:45:25;;;;;;;6.25;2.80;;;14.80;99.90;;;;;;2095562;28;20024;-72
2022/10/23 00:46:26;;;;;;;6.30;2.67;;;14.70;99.90;;;;;;2093084;28;20016;-72
2022/10/23 00:47:26;;;;;;;6.78;2.50;;;14.70;99.90;;;;;;2095846;28;20034;-72
2022/10/23 00:48:28;;;;;;;6.18;2.75;;;14.70;99.90;;;;;;2093552;28;20441;-72
2022/10/23 00:49:28;;;;;;;5.25;2.30;;;14.70;99.90;;;;;;2094506;28;20052;-72
2022/10/23 00:50:31;;;;;;;9.35;2.75;;;14.70;99.90;;;;;;2095837;28;20039;-72
2022/10/23 00:51:35;;;;;;;6.63;2.53;;;14.70;99.90;;;;;;2095459;28;20029;-72
2022/10/23 00:52:40;;;;;;;7.53;2.85;;;14.70;99.90;;;;;;2092089;28;20055;-72
2022/10/23 00:53:43;;;;;;;7.07;2.70;;;14.70;99.90;;;;;;2090473;28;20033;-72
2022/10/23 00:54:44;;;;;;;7.20;2.85;;;14.70;99.90;;;;;;2093883;28;20025;-72
2022/10/23 00:55:47;;;;;;;8.68;2.97;;;14.70;99.90;;;;;;2094491;28;20017;-72
2022/10/23 00:56:48;;;;;;;7.22;2.55;;;14.60;99.90;;;;;;2091695;28;20114;-72
2022/10/23 00:57:49;;;;;;;8.80;3.00;;;14.60;99.90;;;;;;2091885;28;20029;-72
2022/10/23 00:58:50;;;;;;;5.20;2.60;;;14.60;99.90;;;;;;2092757;28;20435;-72
2022/10/23 00:59:50;;;;;;;6.95;2.92;;;14.60;99.90;;;;;;2095279;28;20029;-72
2022/10/23 01:00:54;;;;;;;8.77;3.00;;;14.60;99.90;;;;;;2095644;28;20032;-72
2022/10/23 01:01:55;;;;;;;5.22;2.53;;;14.60;99.90;;;;;;2093515;28;20431;-72
2022/10/23 01:02:56;;;;;;;8.55;3.05;;;14.50;99.90;;;;;;2092059;28;20037;-72
2022/10/23 01:03:57;;;;;;;10.70;3.20;;;14.60;99.90;;;;;;2093471;28;20037;-72
2022/10/23 01:04:58;;;;;;;9.35;2.72;;;14.50;99.90;;;;;;2091848;28;20365;-72
2022/10/23 01:06:10;;;;;;;8.48;2.90;;;14.50;99.90;;;;;;2090394;28;20032;-72
2022/10/23 01:07:29;;;;;;;9.90;2.97;;;14.50;99.90;;;;;;2095504;28;20105;-72
2022/10/23 01:08:42;;;;;;;7.63;3.00;;;14.50;99.90;;;;;;2094952;28;20032;-72
2022/10/23 01:09:52;;;;;;;8.35;2.60;;;14.50;99.90;;;;;;2094307;28;20483;-72
2022/10/23 01:11:16;;;;;;;8.95;2.70;;;14.50;99.90;;;;;;2092752;28;20027;-72
2022/10/23 01:12:49;;;;;;;6.15;3.00;;;14.50;99.90;;;;;;2093065;28;20040;-73
2022/10/23 01:13:59;;;;;;;5.95;2.67;;;14.50;99.90;;;;;;2092859;28;20025;-72
2022/10/23 01:15:08;;;;;;;11.60;3.17;;;14.50;99.90;;;;;;2094611;28;20027;-72
2022/10/23 01:16:43;;;;;;;8.48;3.10;;;14.50;99.90;;;;;;2097808;28;20021;-72
2022/10/23 01:18:01;;;;;;;7.50;2.50;;;14.50;99.90;;;;;;2095240;28;20384;-72
2022/10/23 01:19:15;;;;;;;8.98;3.30;;;14.50;99.90;;;;;;2095924;28;20020;-72
2022/10/23 01:20:35;;;;;;;8.95;3.05;;;14.50;99.90;;;;;;2093752;28;20069;-72
2022/10/23 01:21:54;;;;;;;8.40;2.60;;;14.50;99.90;;;;;;2093249;28;20067;-72
2022/10/23 01:23:32;;;;;;;12.35;2.95;;;14.50;99.90;;;;;;2092371;28;20097;-72
2022/10/23 01:24:42;;;;;;;11.40;3.67;;;14.50;99.90;;;;;;2092778;28;20032;-72
2022/10/23 01:26:00;;;;;;;8.38;2.58;;;14.50;99.90;;;;;;2093410;28;20044;-72
2022/10/23 01:27:12;;;;;;;8.93;3.30;;;14.50;99.90;;;;;;2097338;28;20147;-72
2022/10/23 01:28:21;;;;;;;7.47;2.65;;;14.50;99.90;;;;;;2098924;28;20023;-72
2022/10/23 01:29:40;;;;;;;9.82;3.22;;;14.50;99.90;;;;;;2094780;28;20016;-72
2022/10/23 01:30:43;;;;;;;6.90;2.42;;;14.50;99.90;;;;;;2095610;28;20040;-73
2022/10/23 01:31:50;;;;;;;14.57;2.95;;;14.50;99.90;;;;;;2095203;28;20056;-72
2022/10/23 01:33:01;;;;;;;7.63;2.33;;;14.60;99.90;;;;;;2095199;28;20032;-72
2022/10/23 01:34:41;;;;;;;11.75;2.80;;;14.60;99.90;;;;;;2095666;28;20039;-72
2022/10/23 01:35:49;;;;;;;10.02;2.72;;;14.60;99.90;;;;;;2092947;28;20121;-72
2022/10/23 01:36:52;;;;;;;6.20;2.85;;;14.50;99.90;;;;;;2094987;28;20028;-72
2022/10/23 01:38:15;;;;;;;15.77;3.20;;;14.60;99.90;;;;;;2093205;28;20031;-72
2022/10/23 01:39:33;;;;;;;10.65;2.95;;;14.60;99.90;;;;;;2092714;28;20043;-72
2022/10/23 01:40:39;;;;;;;6.45;3.03;;;14.60;99.90;;;;;;2096949;28;20016;-72
2022/10/23 01:41:54;;;;;;;9.75;2.60;;;14.60;99.90;;;;;;2092567;28;20974;-72
2022/10/23 01:43:00;;;;;;;11.82;3.13;;;14.60;99.90;;;;;;2093319;28;20040;-72
2022/10/23 01:44:23;;;;;;;7.72;3.03;;;14.60;99.90;;;;;;2094136;28;20040;-72
2022/10/23 01:45:29;;;;;;;6.03;2.70;;;14.70;99.90;;;;;;2095098;28;20039;-72
2022/10/23 01:46:34;;;;;;;7.30;3.03;;;14.60;99.90;;;;;;2098028;28;20477;-72
2022/10/23 01:47:35;;;;;;;9.90;2.20;;;14.70;99.90;;;;;;2095038;28;20032;-72
2022/10/23 01:48:37;;;;;;;4.25;2.55;;;14.70;99.90;;;;;;2095429;28;20095;-72
2022/10/23 01:49:39;;;;;;;8.15;2.78;;;14.70;99.90;;;;;;2095738;28;20407;-72
2022/10/23 01:50:42;;;;;;;7.82;2.92;;;14.70;99.90;;;;;;2093487;28;20108;-72
2022/10/23 01:51:49;;;;;;;7.88;2.80;;;14.70;99.90;;;;;;2094679;28;20028;-71
2022/10/23 01:52:50;;;;;;;9.57;2.90;;;14.70;99.90;;;;;;2096437;28;20359;-72
2022/10/23 01:53:54;;;;;;;9.95;2.58;;;14.70;99.90;;;;;;2095122;28;20020;-72
2022/10/23 01:54:59;;;;;;;7.45;2.53;;;14.70;99.90;;;;;;2095451;28;20047;-72
2022/10/23 01:56:02;;;;;;;15.05;2.55;;;14.70;99.90;;;;;;2090782;28;20025;-72
2022/10/23 01:57:06;;;;;;;6.20;2.63;;;14.80;99.90;;;;;;2083326;28;20055;-72
2022/10/23 01:58:09;;;;;;;7.65;2.88;;;14.80;99.90;;;;;;2094848;28;20029;-72
2022/10/23 01:59:18;;;;;;;7.57;2.72;;;14.80;99.90;;;;;;2096849;28;20071;-72
2022/10/23 02:00:19;;;;;;;5.03;2.40;;;14.80;99.90;;;;;;2094770;28;20024;-72
2022/10/23 02:01:24;;;;;;;9.05;2.67;;;14.80;99.90;;;;;;2095437;28;20464;-72
2022/10/23 02:02:26;;;;;;;9.05;2.67;;;14.80;99.90;;;;;;2093873;28;20040;-72
2022/10/23 02:03:30;;;;;;;8.98;2.45;;;14.80;99.90;;;;;;2093733;28;20028;-72
2022/10/23 02:04:38;;;;;;;14.55;2.92;;;14.80;99.90;;;;;;2093871;28;20024;-72
2022/10/23 02:05:38;;;;;;;7.40;2.45;;;14.80;99.90;;;;;;2095804;28;20035;-72
2022/10/23 02:06:39;;;;;;;5.72;2.50;;;14.80;99.90;;;;;;2096063;28;20048;-72
2022/10/23 02:07:40;;;;;;;4.95;2.90;;;14.80;99.90;;;;;;2097018;28;20035;-72
2022/10/23 02:08:41;;;;;;;6.15;2.88;;;14.80;99.90;;;;;;2097178;28;20513;-72
2022/10/23 02:09:42;;;;;;;9.35;3.10;;;14.90;99.90;;;;;;2095950;28;20078;-72
2022/10/23 02:10:42;;;;;;;6.43;3.20;;;14.90;99.90;;;;;;2096246;28;20089;-72
2022/10/23 02:11:58;;;;;;;11.73;3.17;;;14.90;99.90;;;;;;2094280;28;20602;-72
2022/10/23 02:13:09;;;;;;;7.72;3.05;;;14.80;99.90;;;;;;2093184;28;20090;-72
2022/10/23 02:14:23;;;;;;;7.07;2.67;;;14.90;99.90;;;;;;2096518;28;20065;-72
2022/10/23 02:15:32;;;;;;;8.15;2.85;;;14.90;99.90;;;;;;2096130;28;20086;-72
2022/10/23 02:16:39;;;;;;;7.05;2.85;;;14.90;99.90;;;;;;2095755;28;20033;-72
2022/10/23 02:17:59;;;;;;;11.05;3.78;;;14.90;99.90;;;;;;2096333;28;20033;-72
2022/10/23 02:19:11;;;;;;;14.00;3.00;;;14.90;99.90;;;;;;2095123;28;20021;-72
2022/10/23 02:20:34;;;;;;;11.32;3.25;;;14.90;99.90;;;;;;2093091;28;20024;-72
2022/10/23 02:21:50;;;;;;;9.32;3.20;;;14.90;99.90;;;;;;2096127;28;20420;-72
2022/10/23 02:23:00;;;;;;;11.15;4.55;;;14.90;99.90;;;;;;2094538;28;20412;-72
2022/10/23 02:24:09;;;;;;;11.63;3.67;;;14.90;99.90;;;;;;2093269;28;20130;-72
2022/10/23 02:25:15;;;;;;;6.55;3.13;;;14.90;99.90;;;;;;2094386;28;20064;-72
2022/10/23 02:26:24;;;;;;;8.57;3.83;;;14.90;99.90;;;;;;2094971;28;20032;-72
2022/10/23 02:27:36;;;;;;;18.95;4.68;;;14.90;99.90;;;;;;2094264;28;20024;-72
2022/10/23 02:28:44;;;;;;;10.30;4.07;;;14.90;99.90;;;;;;2094964;28;20029;-72
2022/10/23 02:29:50;;;;;;;15.70;4.68;;;14.90;99.90;;;;;;2094252;28;20028;-72
2022/10/23 02:30:53;;;;;;;13.98;4.45;;;14.90;99.90;;;;;;2083279;28;20139;-72
2022/10/23 02:31:53;;;;;;;9.88;4.22;;;14.90;99.90;;;;;;2090166;28;20115;-72
2022/10/23 02:32:56;;;;;;;9.05;4.20;;;14.90;99.90;;;;;;2094495;28;20029;-72
2022/10/23 02:33:56;;;;;;;8.25;3.38;;;14.90;99.90;;;;;;2094326;28;20047;-72
2022/10/23 02:34:57;;;;;;;11.20;4.10;;;15.00;99.90;;;;;;2093597;28;20021;-72
2022/10/23 02:35:58;;;;;;;7.00;3.95;;;15.00;99.90;;;;;;2095125;28;20063;-72
2022/10/23 02:36:59;;;;;;;10.25;3.78;;;15.00;99.90;;;;;;2096477;28;20032;-72
2022/10/23 02:38:00;;;;;;;7.70;3.22;;;15.00;99.90;;;;;;2093626;28;20096;-72
2022/10/23 02:39:00;;;;;;;6.72;4.03;;;15.00;99.90;;;;;;2096852;28;20028;-72
2022/10/23 02:40:02;;;;;;;6.22;3.70;;;14.90;99.90;;;;;;2095449;28;20056;-72
2022/10/23 02:41:28;;;;;;;6.68;4.22;;;15.00;99.90;;;;;;2094372;28;20017;-72
2022/10/23 02:42:40;;;;;;;12.95;4.43;;;15.00;99.90;;;;;;2093949;28;20028;-72
2022/10/23 02:44:14;;;;;;;8.30;3.63;;;15.00;99.90;;;;;;2096144;28;20041;-72
2022/10/23 02:45:37;;;;;;;8.07;3.85;;;14.90;99.90;;;;;;2095953;28;20040;-72
2022/10/23 02:47:09;;;;;;;11.07;3.58;;;14.90;99.90;;;;;;2095849;28;20033;-72
2022/10/23 02:48:17;;;;;;;14.05;3.65;;;14.90;99.90;;;;;;2093520;28;20047;-72
2022/10/23 02:49:26;;;;;;;9.20;3.63;;;14.90;99.90;;;;;;2101883;28;20053;-72
2022/10/23 02:50:50;;;;;;;8.73;4.20;;;14.90;99.90;;;;;;2101133;28;20035;-72
2022/10/23 02:52:04;;;;;;;8.68;3.70;;;14.90;99.90;;;;;;2091763;28;20036;-72
2022/10/23 02:53:16;;;;;;;8.00;3.50;;;14.90;99.90;;;;;;2091481;28;20811;-72
2022/10/23 02:54:37;;;;;;;6.75;3.67;;;14.90;99.90;;;;;;2094070;28;20025;-72
2022/10/23 02:55:54;;;;;;;10.98;3.58;;;14.90;99.90;;;;;;2094208;28;20029;-72
2022/10/23 02:57:02;;;;;;;7.82;3.53;;;14.90;99.90;;;;;;2094101;28;20025;-72
2022/10/23 02:58:13;;;;;;;12.40;3.47;;;14.90;99.90;;;;;;2093650;28;20028;-72
2022/10/23 02:59:23;;;;;;;8.80;3.20;;;14.90;99.90;;;;;;2093918;28;20043;-72
2022/10/23 03:00:24;;;;;;;5.75;2.92;;;14.90;99.90;;;;;;2095897;28;20024;-72
2022/10/23 03:01:27;;;;;;;9.20;3.92;;;14.90;99.90;;;;;;2092995;28;20120;-72
2022/10/23 03:02:36;;;;;;;7.13;2.75;;;15.00;99.90;;;;;;2093261;28;20025;-72
2022/10/23 03:03:44;;;;;;;8.75;3.55;;;15.00;99.90;;;;;;2094315;28;20036;-72
2022/10/23 03:04:45;;;;;;;7.22;3.03;;;15.00;99.90;;;;;;2092789;28;20060;-72
2022/10/23 03:05:46;;;;;;;7.43;3.50;;;15.00;99.90;;;;;;2094559;28;20034;-72
2022/10/23 03:06:49;;;;;;;11.40;3.03;;;15.00;99.90;;;;;;2096356;28;20031;-72
2022/10/23 03:07:50;;;;;;;8.25;3.25;;;15.00;99.90;;;;;;2097523;28;20049;-72
2022/10/23 03:08:58;;;;;;;9.70;3.50;;;15.00;99.90;;;;;;2096307;28;20040;-72
2022/10/23 03:09:59;;;;;;;8.95;3.58;;;15.00;99.90;;;;;;2093638;28;20087;-72
2022/10/23 03:11:00;;;;;;;13.15;3.10;;;15.00;99.90;;;;;;2092145;28;20024;-72
2022/10/23 03:12:00;;;;;;;8.43;2.95;;;15.00;99.90;;;;;;2094291;28;20778;-72
2022/10/23 03:13:01;;;;;;;10.35;4.10;;;15.00;99.90;;;;;;2094126;28;20388;-72
2022/10/23 03:14:01;;;;;;;5.82;2.55;;;15.00;99.90;;;;;;2095705;28;20031;-72
2022/10/23 03:15:03;;;;;;;13.23;3.17;;;15.00;99.90;;;;;;2094143;28;20032;-72
2022/10/23 03:16:04;;;;;;;7.38;3.35;;;15.00;99.90;;;;;;2095703;28;20062;-72
2022/10/23 03:17:04;;;;;;;8.40;3.17;;;15.00;99.90;;;;;;2096129;28;20024;-72
2022/10/23 03:18:05;;;;;;;7.60;2.90;;;15.00;99.90;;;;;;2097753;28;20024;-72
2022/10/23 03:19:06;;;;;;;9.88;4.03;;;15.00;99.90;;;;;;2094304;28;20021;-72
2022/10/23 03:20:07;;;;;;;9.90;2.88;;;15.00;99.90;;;;;;2093929;28;20025;-72
2022/10/23 03:21:08;;;;;;;6.80;3.05;;;15.00;99.90;;;;;;2093365;28;20044;-72
2022/10/23 03:22:08;;;;;;;5.60;2.92;;;15.10;99.90;;;;;;2092921;28;20021;-72
2022/10/23 03:23:12;;;;;;;9.55;3.10;;;15.00;99.90;;;;;;2100848;28;20020;-72
2022/10/23 03:24:12;;;;;;;10.13;3.10;;;15.00;99.90;;;;;;2100916;28;20385;-72
2022/10/23 03:25:13;;;;;;;7.32;2.53;;;15.00;99.90;;;;;;2093231;28;20051;-72
2022/10/23 03:26:14;;;;;;;6.15;2.60;;;15.00;99.90;;;;;;2093848;28;20027;-72
2022/10/23 03:27:15;;;;;;;6.72;2.85;;;15.10;99.90;;;;;;2094458;28;20017;-72
2022/10/23 03:28:15;;;;;;;6.82;2.85;;;15.00;99.90;;;;;;2095149;28;20031;-72
2022/10/23 03:29:16;;;;;;;8.05;2.90;;;15.10;99.90;;;;;;2095465;28;20065;-72
2022/10/23 03:30:16;;;;;;;5.35;2.38;;;15.00;99.90;;;;;;2093419;28;20025;-72
2022/10/23 03:31:17;;;;;;;8.68;3.30;;;15.10;99.90;;;;;;2094952;28;20593;-72
2022/10/23 03:32:17;;;;;;;6.60;2.92;;;15.10;99.90;;;;;;2093052;28;20508;-72
2022/10/23 03:33:18;;;;;;;6.15;2.95;;;15.10;99.90;;;;;;2092485;28;20036;-72
2022/10/23 03:34:19;;;;;;;11.10;3.30;;;15.10;99.90;;;;;;2094139;28;20520;-72
2022/10/23 03:35:19;;;;;;;7.60;3.30;;;15.10;99.90;;;;;;2095875;28;20027;-72
2022/10/23 03:36:20;;;;;;;5.13;2.50;;;15.10;99.90;;;;;;2093309;28;20112;-72
2022/10/23 03:37:20;;;;;;;8.93;2.80;;;15.10;99.90;;;;;;2095340;28;20168;-72
2022/10/23 03:38:21;;;;;;;5.28;2.65;;;15.10;99.90;;;;;;2096376;28;21533;-72
2022/10/23 03:39:22;;;;;;;9.20;3.60;;;15.00;99.90;;;;;;2098030;28;20029;-72
2022/10/23 03:40:22;;;;;;;4.97;2.75;;;15.10;99.90;;;;;;2095910;28;20486;-72
2022/10/23 03:41:23;;;;;;;7.88;2.65;;;15.00;99.90;;;;;;2092220;28;20799;-72
2022/10/23 03:42:24;;;;;;;7.93;2.97;;;15.00;99.90;;;;;;2094350;28;20365;-72
2022/10/23 03:43:25;;;;;;;12.25;3.50;;;15.00;99.90;;;;;;2095895;28;20031;-72
2022/10/23 03:44:25;;;;;;;9.68;3.20;;;15.00;99.90;;;;;;2096491;28;20082;-72
2022/10/23 03:45:26;;;;;;;6.32;3.10;;;15.00;99.90;;;;;;2094716;28;20025;-72
2022/10/23 03:46:26;;;;;;;9.90;2.80;;;15.00;99.90;;;;;;2093463;28;20056;-72
2022/10/23 03:47:29;;;;;;;7.63;2.50;;;15.00;99.90;;;;;;2095394;28;20052;-72
2022/10/23 03:48:30;;;;;;;8.98;2.55;;;15.00;99.90;;;;;;2096079;28;20012;-72
2022/10/23 03:49:31;;;;;;;8.40;2.75;;;15.00;99.90;;;;;;2094068;28;20063;-72
2022/10/23 03:50:32;;;;;;;5.65;2.95;;;15.00;99.90;;;;;;2096694;28;20062;-72
2022/10/23 03:51:33;;;;;;;8.63;3.15;;;15.00;99.90;;;;;;2091617;28;20017;-72
2022/10/23 03:52:34;;;;;;;7.38;3.08;;;15.00;99.90;;;;;;2094871;28;20028;-72
2022/10/23 03:53:35;;;;;;;9.30;3.10;;;15.00;99.90;;;;;;2092503;28;20069;-72
2022/10/23 03:54:35;;;;;;;10.38;3.22;;;15.00;99.90;;;;;;2094354;28;20112;-72
2022/10/23 03:55:36;;;;;;;6.75;3.10;;;15.00;99.90;;;;;;2094071;28;20524;-72
2022/10/23 03:56:36;;;;;;;6.63;3.08;;;15.00;99.90;;;;;;2090696;28;20040;-72
2022/10/23 03:57:37;;;;;;;7.00;3.00;;;15.00;99.90;;;;;;2096375;28;20036;-72
2022/10/23 03:58:37;;;;;;;5.72;3.05;;;15.10;99.90;;;;;;2094993;28;20032;-72
2022/10/23 03:59:38;;;;;;;6.80;3.33;;;15.00;99.90;;;;;;2094586;28;20103;-72
2022/10/23 04:00:38;;;;;;;7.32;2.95;;;15.00;99.90;;;;;;2095820;28;20081;-72
2022/10/23 04:01:39;;;;;;;8.30;3.50;;;15.10;99.90;;;;;;2092827;28;20781;-72
2022/10/23 04:02:39;;;;;;;7.68;3.30;;;15.00;99.90;;;;;;2093999;28;20032;-72
2022/10/23 04:03:40;;;;;;;8.27;3.35;;;15.10;99.90;;;;;;2097879;28;20024;-72
2022/10/23 04:04:41;;;;;;;7.32;3.20;;;15.10;99.90;;;;;;2096016;28;20038;-72
2022/10/23 04:05:42;;;;;;;10.45;3.63;;;15.00;99.90;;;;;;2095576;28;20093;-72
2022/10/23 04:06:42;;;;;;;10.77;3.70;;;15.00;99.90;;;;;;2095516;28;20033;-72
2022/10/23 04:07:43;;;;;;;6.47;3.33;;;15.10;99.90;;;;;;2096320;28;20429;-72
2022/10/23 04:08:44;;;;;;;8.52;3.70;;;15.10;99.90;;;;;;2096105;28;20067;-72
2022/10/23 04:09:44;;;;;;;13.55;3.83;;;15.10;99.90;;;;;;2097890;28;20039;-72
2022/10/23 04:10:45;;;;;;;11.25;3.53;;;15.10;99.90;;;;;;2096318;28;20101;-72
2022/10/23 04:11:45;;;;;;;9.90;3.70;;;15.10;99.90;;;;;;2094908;28;20033;-72
2022/10/23 04:12:46;;;;;;;9.70;3.80;;;15.10;99.90;;;;;;2094172;28;20109;-72
2022/10/23 04:13:46;;;;;;;7.47;3.70;;;15.10;99.90;;;;;;2096354;28;20431;-72
2022/10/23 04:14:47;;;;;;;7.90;3.67;;;15.10;99.90;;;;;;2094589;28;20029;-72
2022/10/23 04:15:51;;;;;;;7.07;3.40;;;15.10;99.90;;;;;;2095193;28;20028;-72
2022/10/23 04:16:52;;;;;;;15.13;3.25;;;15.10;99.90;;;;;;2095580;28;20036;-72
2022/10/23 04:17:52;;;;;;;7.43;3.20;;;15.10;99.90;;;;;;2094450;28;20028;-72
2022/10/23 04:18:53;;;;;;;10.18;3.47;;;15.10;99.90;;;;;;2096849;28;20116;-72
2022/10/23 04:19:53;;;;;;;7.03;3.38;;;15.10;99.90;;;;;;2094342;28;20025;-72
2022/10/23 04:20:54;;;;;;;11.00;3.33;;;15.10;99.90;;;;;;2094207;28;20078;-72
2022/10/23 04:21:56;;;;;;;8.40;3.33;;;15.10;99.90;;;;;;2093868;28;20690;-72
2022/10/23 04:22:56;;;;;;;4.32;2.88;;;15.20;99.90;;;;;;2096508;28;20037;-72
2022/10/23 04:23:57;;;;;;;7.65;3.20;;;15.10;99.90;;;;;;2093649;28;20037;-72
2022/10/23 04:24:57;;;;;;;6.22;3.28;;;15.20;99.90;;;;;;2094300;28;20047;-72
2022/10/23 04:25:58;;;;;;;6.03;3.00;;;15.10;99.90;;;;;;2093856;28;20107;-72
2022/10/23 04:26:58;;;;;;;9.82;3.45;;;15.20;99.90;;;;;;2092843;28;20046;-72
2022/10/23 04:27:59;;;;;;;6.75;2.55;;;15.20;99.90;;;;;;2094607;28;20477;-72
2022/10/23 04:28:59;;;;;;;6.65;2.65;;;15.20;99.90;;;;;;2090339;28;20025;-72
2022/10/23 04:30:02;;;;;;;5.80;2.92;;;15.20;99.90;;;;;;2083834;28;20102;-72
2022/10/23 04:31:03;;;;;;;7.57;2.95;;;15.20;99.90;;;;;;2093068;28;20018;-72
2022/10/23 04:32:03;;;;;;;6.45;2.97;;;15.20;99.90;;;;;;2093827;28;20040;-72
2022/10/23 04:33:05;;;;;;;7.63;3.08;;;15.20;99.90;;;;;;2092777;28;20476;-72
2022/10/23 04:34:06;;;;;;;7.82;2.75;;;15.20;99.90;;;;;;2095641;28;20029;-72
2022/10/23 04:35:06;;;;;;;8.30;3.08;;;15.30;99.90;;;;;;2095453;28;20031;-72
2022/10/23 04:36:08;;;;;;;8.65;2.50;;;15.30;99.90;;;;;;2095993;28;20041;-72
2022/10/23 04:37:09;;;;;;;9.15;3.25;;;15.30;99.90;;;;;;2096614;28;20103;-72
2022/10/23 04:38:09;;;;;;;9.05;2.83;;;15.30;99.90;;;;;;2095526;28;20031;-72
2022/10/23 04:39:10;;;;;;;5.55;2.72;;;15.30;99.90;;;;;;2097069;28;20056;-71
2022/10/23 04:40:11;;;;;;;8.93;2.75;;;15.30;99.90;;;;;;2097708;28;20031;-72
2022/10/23 04:41:11;;;;;;;4.82;2.42;;;15.30;99.90;;;;;;2096720;28;20035;-72
2022/10/23 04:42:12;;;;;;;8.23;2.80;;;15.40;99.90;;;;;;2092838;28;20028;-72
2022/10/23 04:43:12;;;;;;;9.75;2.97;;;15.30;99.90;;;;;;2094892;28;20108;-72
2022/10/23 04:44:13;;;;;;;8.93;3.42;;;15.30;99.90;;;;;;2094654;28;20029;-72
2022/10/23 04:45:13;;;;;;;9.70;3.15;;;15.40;99.90;;;;;;2092517;28;20051;-72
2022/10/23 04:46:14;;;;;;;9.52;2.95;;;15.40;99.90;;;;;;2092821;28;20047;-72
2022/10/23 04:47:14;;;;;;;9.32;3.13;;;15.40;99.90;;;;;;2092966;28;20032;-72
2022/10/23 04:48:15;;;;;;;7.20;3.00;;;15.40;99.90;;;;;;2096266;28;20032;-72
2022/10/23 04:49:15;;;;;;;10.95;2.92;;;15.40;99.90;;;;;;2096301;28;20427;-72
2022/10/23 04:50:16;;;;;;;8.32;2.92;;;15.40;99.90;;;;;;2095515;28;20638;-72
2022/10/23 04:51:16;;;;;;;9.60;2.97;;;15.40;99.90;;;;;;2094338;28;20455;-72
2022/10/23 04:52:17;;;;;;;10.57;2.90;;;15.40;99.90;;;;;;2095243;28;20016;-72
2022/10/23 04:53:17;;;;;;;14.30;2.80;;;15.40;99.90;;;;;;2095501;28;20100;-72
2022/10/23 04:54:18;;;;;;;10.38;3.08;;;15.40;99.90;;;;;;2094341;28;20012;-72
2022/10/23 04:55:19;;;;;;;7.25;3.13;;;15.40;99.90;;;;;;2094031;28;20025;-72
2022/10/23 04:56:20;;;;;;;6.53;2.70;;;15.40;99.90;;;;;;2093928;28;20029;-72
2022/10/23 04:57:20;;;;;;;6.88;2.83;;;15.40;99.90;;;;;;2094493;28;20746;-72
2022/10/23 04:58:22;;;;;;;5.03;2.70;;;15.50;99.90;;;;;;2093911;28;20369;-72
2022/10/23 04:59:22;;;;;;;9.00;3.03;;;15.40;99.90;;;;;;2096018;28;20021;-72
2022/10/23 05:00:23;;;;;;;9.10;3.33;;;15.40;99.90;;;;;;2095110;28;20059;-72
2022/10/23 05:01:23;;;;;;;7.82;2.50;;;15.50;99.90;;;;;;2094321;28;20029;-72
2022/10/23 05:02:24;;;;;;;10.20;3.10;;;15.50;99.90;;;;;;2096336;28;20066;-72
2022/10/23 05:03:25;;;;;;;8.48;3.22;;;15.50;99.90;;;;;;2095541;28;20036;-72
2022/10/23 05:04:25;;;;;;;7.93;3.00;;;15.50;99.90;;;;;;2095793;28;20415;-72
2022/10/23 05:05:26;;;;;;;6.75;2.95;;;15.50;99.90;;;;;;2096694;28;20024;-72
2022/10/23 05:06:26;;;;;;;7.28;3.55;;;15.50;99.90;;;;;;2096808;28;20121;-72
2022/10/23 05:07:27;;;;;;;7.65;2.75;;;15.50;99.90;;;;;;2097192;28;20017;-72
2022/10/23 05:08:28;;;;;;;7.78;2.72;;;15.50;99.90;;;;;;2094882;28;20388;-72
2022/10/23 05:09:28;;;;;;;6.60;2.65;;;15.50;99.90;;;;;;2096735;28;20045;-72
2022/10/23 05:10:29;;;;;;;6.32;2.80;;;15.50;99.90;;;;;;2096215;28;20025;-72
2022/10/23 05:11:29;;;;;;;9.93;3.15;;;15.50;99.90;;;;;;2094197;28;20025;-72
2022/10/23 05:12:30;;;;;;;5.55;2.67;;;15.50;99.90;;;;;;2098682;28;20095;-72
2022/10/23 05:13:30;;;;;;;3.55;2.58;;;15.50;99.90;;;;;;2096474;28;20032;-72
2022/10/23 05:14:31;;;;;;;9.98;2.78;;;15.50;99.90;;;;;;2097920;28;20067;-72
2022/10/23 05:15:31;;;;;;;7.10;3.25;;;15.50;99.90;;;;;;2096936;28;20033;-71
2022/10/23 05:16:45;;;;;;;8.10;2.63;;;15.50;99.90;;;;;;2098675;28;20104;-72
2022/10/23 05:17:49;;;;;;;4.80;2.83;;;15.50;99.90;;;;;;2096598;28;20025;-72
2022/10/23 05:18:50;;;;;;;5.75;2.55;;;15.50;99.90;;;;;;2094187;28;20124;-72
2022/10/23 05:19:53;;;;;;;6.57;2.55;;;15.50;99.90;;;;;;2094582;28;20088;-72
2022/10/23 05:21:05;;;;;;;7.97;3.05;;;15.50;99.90;;;;;;2094882;28;20078;-72
2022/10/23 05:22:06;;;;;;;7.85;2.90;;;15.50;99.90;;;;;;2093170;28;20373;-72
2022/10/23 05:23:09;;;;;;;7.35;3.25;;;15.50;99.90;;;;;;2094624;28;20122;-71
2022/10/23 05:24:10;;;;;;;6.25;2.80;;;15.50;99.90;;;;;;2097416;28;20039;-71
2022/10/23 05:25:12;;;;;;;6.20;3.20;;;15.50;99.90;;;;;;2095015;28;20068;-71
2022/10/23 05:26:12;;;;;;;8.25;3.05;;;15.50;99.90;;;;;;2092154;28;20084;-72
2022/10/23 05:27:13;;;;;;;6.25;3.10;;;15.50;99.90;;;;;;2092622;28;20027;-72
2022/10/23 05:28:13;;;;;;;4.53;2.58;;;15.60;99.90;;;;;;2092935;28;20425;-72
2022/10/23 05:29:14;;;;;;;6.78;2.67;;;15.50;99.90;;;;;;2086564;28;20128;-72
2022/10/23 05:30:14;;;;;;;8.20;2.85;;;15.50;99.90;;;;;;2096204;28;20028;-72
2022/10/23 05:31:17;;;;;;;9.30;2.80;;;15.60;99.90;;;;;;2096132;28;20025;-72
2022/10/23 05:32:18;;;;;;;4.55;2.55;;;15.60;99.90;;;;;;2096212;28;20032;-72
2022/10/23 05:33:19;;;;;;;9.13;2.72;;;15.50;99.90;;;;;;2094276;28;20020;-72
2022/10/23 05:34:24;;;;;;;5.63;2.78;;;15.60;99.90;;;;;;2095625;28;20031;-72